sensor_id;sensor_type;location;lat;lon;timestamp;P1;durP1;ratioP1;P2;durP2;ratioP2
17451;SDS011;8843;48.838;9.324;2022-09-20T00:01:18;2.93;;;2.63;;
17451;SDS011;8843;48.838;9.324;2022-09-20T00:03:48;3.00;;;2.37;;
17451;SDS011;8843;48.838;9.324;2022-09-20T00:06:16;3.97;;;2.53;;
17451;SDS011;8843;48.838;9.324;2022-09-20T00:08:45;4.20;;;2.70;;
17451;SDS011;8843;48.838;9.324;2022-09-20T00:11:14;3.80;;;2.70;;
17451;SDS011;8843;48.838;9.324;2022-09-20T00:13:44;4.33;;;2.80;;
17451;SDS011;8843;48.838;9.324;2022-09-20T00:16:13;3.10;;;2.80;;
17451;SDS011;8843;48.838;9.324;2022-09-20T00:18:42;4.60;;;2.60;;
17451;SDS011;8843;48.838;9.324;2022-09-20T00:21:13;4.63;;;2.87;;
17451;SDS011;8843;48.838;9.324;2022-09-20T00:23:42;2.67;;;2.47;;
17451;SDS011;8843;48.838;9.324;2022-09-20T00:26:09;2.80;;;2.30;;
17451;SDS011;8843;48.838;9.324;2022-09-20T00:28:35;3.10;;;2.60;;
17451;SDS011;8843;48.838;9.324;2022-09-20T00:31:04;4.73;;;2.60;;
17451;SDS011;8843;48.838;9.324;2022-09-20T00:33:32;3.30;;;2.30;;
17451;SDS011;8843;48.838;9.324;2022-09-20T00:36:17;3.87;;;2.27;;
17451;SDS011;8843;48.838;9.324;2022-09-20T00:38:43;2.53;;;2.33;;
17451;SDS011;8843;48.838;9.324;2022-09-20T00:41:10;4.93;;;2.53;;
17451;SDS011;8843;48.838;9.324;2022-09-20T00:43:38;3.90;;;2.53;;
17451;SDS011;8843;48.838;9.324;2022-09-20T00:46:13;4.70;;;2.47;;
17451;SDS011;8843;48.838;9.324;2022-09-20T00:48:47;3.23;;;2.13;;
17451;SDS011;8843;48.838;9.324;2022-09-20T00:51:16;3.37;;;2.40;;
17451;SDS011;8843;48.838;9.324;2022-09-20T00:53:50;3.83;;;2.33;;
17451;SDS011;8843;48.838;9.324;2022-09-20T00:56:19;4.37;;;2.60;;
17451;SDS011;8843;48.838;9.324;2022-09-20T00:58:55;3.47;;;2.47;;
17451;SDS011;8843;48.838;9.324;2022-09-20T01:01:31;2.27;;;2.07;;
17451;SDS011;8843;48.838;9.324;2022-09-20T01:03:58;2.73;;;2.30;;
17451;SDS011;8843;48.838;9.324;2022-09-20T01:06:26;4.03;;;2.40;;
17451;SDS011;8843;48.838;9.324;2022-09-20T01:08:53;2.40;;;2.20;;
17451;SDS011;8843;48.838;9.324;2022-09-20T01:11:23;4.63;;;2.30;;
17451;SDS011;8843;48.838;9.324;2022-09-20T01:13:51;2.53;;;2.33;;
17451;SDS011;8843;48.838;9.324;2022-09-20T01:16:18;4.17;;;2.23;;
17451;SDS011;8843;48.838;9.324;2022-09-20T01:18:47;2.50;;;2.30;;
17451;SDS011;8843;48.838;9.324;2022-09-20T01:21:15;2.80;;;2.40;;
17451;SDS011;8843;48.838;9.324;2022-09-20T01:23:45;4.40;;;2.47;;
17451;SDS011;8843;48.838;9.324;2022-09-20T01:29:21;2.87;;;2.60;;
17451;SDS011;8843;48.838;9.324;2022-09-20T01:31:59;3.13;;;2.27;;
17451;SDS011;8843;48.838;9.324;2022-09-20T01:34:30;2.63;;;2.20;;
17451;SDS011;8843;48.838;9.324;2022-09-20T01:37:02;4.30;;;2.30;;
17451;SDS011;8843;48.838;9.324;2022-09-20T01:39:34;4.10;;;2.33;;
17451;SDS011;8843;48.838;9.324;2022-09-20T01:42:08;2.83;;;2.27;;
17451;SDS011;8843;48.838;9.324;2022-09-20T01:44:39;2.37;;;1.93;;
17451;SDS011;8843;48.838;9.324;2022-09-20T01:47:16;5.27;;;3.30;;
17451;SDS011;8843;48.838;9.324;2022-09-20T01:49:53;2.80;;;2.50;;
17451;SDS011;8843;48.838;9.324;2022-09-20T01:52:33;2.53;;;2.33;;
17451;SDS011;8843;48.838;9.324;2022-09-20T01:55:36;3.93;;;2.37;;
17451;SDS011;8843;48.838;9.324;2022-09-20T02:04:58;2.40;;;2.20;;
17451;SDS011;8843;48.838;9.324;2022-09-20T02:08:06;2.93;;;2.03;;
17451;SDS011;8843;48.838;9.324;2022-09-20T02:13:40;4.23;;;2.10;;
17451;SDS011;8843;48.838;9.324;2022-09-20T02:16:39;3.27;;;1.93;;
17451;SDS011;8843;48.838;9.324;2022-09-20T02:19:29;2.53;;;2.00;;
17451;SDS011;8843;48.838;9.324;2022-09-20T02:22:16;3.73;;;1.93;;
17451;SDS011;8843;48.838;9.324;2022-09-20T02:24:53;3.63;;;2.20;;
17451;SDS011;8843;48.838;9.324;2022-09-20T02:27:26;2.33;;;1.83;;
17451;SDS011;8843;48.838;9.324;2022-09-20T02:30:03;2.30;;;2.10;;
17451;SDS011;8843;48.838;9.324;2022-09-20T02:32:45;2.23;;;1.90;;
17451;SDS011;8843;48.838;9.324;2022-09-20T02:35:28;5.57;;;2.30;;
17451;SDS011;8843;48.838;9.324;2022-09-20T02:38:09;2.47;;;2.07;;
17451;SDS011;8843;48.838;9.324;2022-09-20T02:43:53;2.60;;;2.40;;
17451;SDS011;8843;48.838;9.324;2022-09-20T02:46:25;3.47;;;2.20;;
17451;SDS011;8843;48.838;9.324;2022-09-20T02:48:59;3.00;;;2.07;;
17451;SDS011;8843;48.838;9.324;2022-09-20T02:51:34;4.30;;;2.37;;
17451;SDS011;8843;48.838;9.324;2022-09-20T02:54:10;6.23;;;2.53;;
17451;SDS011;8843;48.838;9.324;2022-09-20T02:56:46;4.27;;;2.17;;
17451;SDS011;8843;48.838;9.324;2022-09-20T02:59:19;3.03;;;2.37;;
17451;SDS011;8843;48.838;9.324;2022-09-20T03:01:58;4.53;;;2.20;;
17451;SDS011;8843;48.838;9.324;2022-09-20T03:04:35;2.70;;;2.30;;
17451;SDS011;8843;48.838;9.324;2022-09-20T03:07:14;5.97;;;2.50;;
17451;SDS011;8843;48.838;9.324;2022-09-20T03:09:50;3.90;;;2.20;;
17451;SDS011;8843;48.838;9.324;2022-09-20T03:12:25;2.93;;;2.67;;
17451;SDS011;8843;48.838;9.324;2022-09-20T03:14:59;2.80;;;1.97;;
17451;SDS011;8843;48.838;9.324;2022-09-20T03:17:37;1.90;;;1.80;;
17451;SDS011;8843;48.838;9.324;2022-09-20T03:20:19;5.07;;;2.10;;
17451;SDS011;8843;48.838;9.324;2022-09-20T03:22:55;4.20;;;2.13;;
17451;SDS011;8843;48.838;9.324;2022-09-20T03:25:33;3.63;;;2.17;;
17451;SDS011;8843;48.838;9.324;2022-09-20T03:28:10;6.80;;;2.23;;
17451;SDS011;8843;48.838;9.324;2022-09-20T03:30:58;3.73;;;1.90;;
17451;SDS011;8843;48.838;9.324;2022-09-20T03:33:32;5.60;;;2.67;;
17451;SDS011;8843;48.838;9.324;2022-09-20T03:36:13;6.53;;;2.23;;
17451;SDS011;8843;48.838;9.324;2022-09-20T03:39:04;2.97;;;2.40;;
17451;SDS011;8843;48.838;9.324;2022-09-20T03:41:49;3.33;;;2.37;;
17451;SDS011;8843;48.838;9.324;2022-09-20T03:47:24;5.53;;;2.93;;
17451;SDS011;8843;48.838;9.324;2022-09-20T03:53:25;4.43;;;2.10;;
17451;SDS011;8843;48.838;9.324;2022-09-20T03:56:18;5.10;;;2.80;;
17451;SDS011;8843;48.838;9.324;2022-09-20T03:59:05;4.90;;;2.80;;
17451;SDS011;8843;48.838;9.324;2022-09-20T04:02:00;6.33;;;3.67;;
17451;SDS011;8843;48.838;9.324;2022-09-20T04:04:43;11.60;;;4.17;;
17451;SDS011;8843;48.838;9.324;2022-09-20T04:07:17;4.97;;;2.57;;
17451;SDS011;8843;48.838;9.324;2022-09-20T04:10:02;3.93;;;3.07;;
17451;SDS011;8843;48.838;9.324;2022-09-20T04:12:41;4.47;;;2.30;;
17451;SDS011;8843;48.838;9.324;2022-09-20T04:15:22;5.63;;;2.60;;
17451;SDS011;8843;48.838;9.324;2022-09-20T04:17:57;4.57;;;2.40;;
17451;SDS011;8843;48.838;9.324;2022-09-20T04:20:31;6.40;;;2.77;;
17451;SDS011;8843;48.838;9.324;2022-09-20T04:23:11;4.20;;;2.73;;
17451;SDS011;8843;48.838;9.324;2022-09-20T04:25:45;3.67;;;2.43;;
17451;SDS011;8843;48.838;9.324;2022-09-20T04:28:18;5.53;;;2.40;;
17451;SDS011;8843;48.838;9.324;2022-09-20T04:30:52;3.23;;;2.20;;
17451;SDS011;8843;48.838;9.324;2022-09-20T04:33:24;3.83;;;2.33;;
17451;SDS011;8843;48.838;9.324;2022-09-20T04:35:54;4.10;;;2.20;;
17451;SDS011;8843;48.838;9.324;2022-09-20T04:38:54;3.47;;;2.50;;
17451;SDS011;8843;48.838;9.324;2022-09-20T04:41:32;5.63;;;2.10;;
17451;SDS011;8843;48.838;9.324;2022-09-20T04:44:34;2.43;;;2.03;;
17451;SDS011;8843;48.838;9.324;2022-09-20T04:50:42;9.00;;;2.53;;
17451;SDS011;8843;48.838;9.324;2022-09-20T04:53:43;2.37;;;2.10;;
17451;SDS011;8843;48.838;9.324;2022-09-20T04:56:25;4.23;;;2.00;;
17451;SDS011;8843;48.838;9.324;2022-09-20T04:59:04;3.87;;;1.90;;
17451;SDS011;8843;48.838;9.324;2022-09-20T05:07:54;4.00;;;2.03;;
17451;SDS011;8843;48.838;9.324;2022-09-20T05:11:00;4.50;;;2.17;;
17451;SDS011;8843;48.838;9.324;2022-09-20T05:14:02;6.27;;;2.63;;
17451;SDS011;8843;48.838;9.324;2022-09-20T05:16:50;3.80;;;2.13;;
17451;SDS011;8843;48.838;9.324;2022-09-20T05:19:31;4.70;;;2.17;;
17451;SDS011;8843;48.838;9.324;2022-09-20T05:22:25;3.33;;;1.87;;
17451;SDS011;8843;48.838;9.324;2022-09-20T05:25:24;5.13;;;2.43;;
17451;SDS011;8843;48.838;9.324;2022-09-20T05:28:11;4.77;;;2.40;;
17451;SDS011;8843;48.838;9.324;2022-09-20T05:30:48;5.47;;;2.07;;
17451;SDS011;8843;48.838;9.324;2022-09-20T05:33:21;4.50;;;1.93;;
17451;SDS011;8843;48.838;9.324;2022-09-20T05:35:53;4.13;;;2.30;;
17451;SDS011;8843;48.838;9.324;2022-09-20T05:38:28;2.63;;;1.97;;
17451;SDS011;8843;48.838;9.324;2022-09-20T05:41:06;4.97;;;2.40;;
17451;SDS011;8843;48.838;9.324;2022-09-20T05:43:42;3.83;;;2.03;;
17451;SDS011;8843;48.838;9.324;2022-09-20T05:46:21;3.67;;;2.20;;
17451;SDS011;8843;48.838;9.324;2022-09-20T05:49:01;3.77;;;2.37;;
17451;SDS011;8843;48.838;9.324;2022-09-20T05:51:41;3.47;;;2.00;;
17451;SDS011;8843;48.838;9.324;2022-09-20T05:57:39;5.10;;;2.10;;
17451;SDS011;8843;48.838;9.324;2022-09-20T06:00:14;3.63;;;2.00;;
17451;SDS011;8843;48.838;9.324;2022-09-20T06:02:46;5.93;;;2.50;;
17451;SDS011;8843;48.838;9.324;2022-09-20T06:05:25;2.87;;;2.20;;
17451;SDS011;8843;48.838;9.324;2022-09-20T06:08:06;7.47;;;3.47;;
17451;SDS011;8843;48.838;9.324;2022-09-20T06:10:51;6.90;;;2.70;;
17451;SDS011;8843;48.838;9.324;2022-09-20T06:13:37;2.90;;;2.40;;
17451;SDS011;8843;48.838;9.324;2022-09-20T06:16:11;3.60;;;2.33;;
17451;SDS011;8843;48.838;9.324;2022-09-20T06:18:49;4.57;;;2.40;;
17451;SDS011;8843;48.838;9.324;2022-09-20T06:21:29;9.47;;;3.40;;
17451;SDS011;8843;48.838;9.324;2022-09-20T06:24:05;5.33;;;2.83;;
17451;SDS011;8843;48.838;9.324;2022-09-20T06:26:43;3.20;;;2.33;;
17451;SDS011;8843;48.838;9.324;2022-09-20T06:29:10;4.53;;;2.70;;
17451;SDS011;8843;48.838;9.324;2022-09-20T06:31:42;2.20;;;2.00;;
17451;SDS011;8843;48.838;9.324;2022-09-20T06:34:09;2.93;;;2.43;;
17451;SDS011;8843;48.838;9.324;2022-09-20T06:36:42;5.93;;;2.57;;
17451;SDS011;8843;48.838;9.324;2022-09-20T06:39:31;6.10;;;2.50;;
17451;SDS011;8843;48.838;9.324;2022-09-20T06:42:23;4.60;;;2.30;;
17451;SDS011;8843;48.838;9.324;2022-09-20T06:44:51;5.33;;;2.00;;
17451;SDS011;8843;48.838;9.324;2022-09-20T06:47:18;3.87;;;2.47;;
17451;SDS011;8843;48.838;9.324;2022-09-20T06:49:47;5.23;;;2.30;;
17451;SDS011;8843;48.838;9.324;2022-09-20T06:52:16;6.60;;;2.17;;
17451;SDS011;8843;48.838;9.324;2022-09-20T06:54:44;5.30;;;1.90;;
17451;SDS011;8843;48.838;9.324;2022-09-20T06:57:13;2.50;;;1.73;;
17451;SDS011;8843;48.838;9.324;2022-09-20T06:59:43;4.90;;;2.10;;
17451;SDS011;8843;48.838;9.324;2022-09-20T07:02:10;4.13;;;2.10;;
17451;SDS011;8843;48.838;9.324;2022-09-20T07:04:37;3.33;;;1.70;;
17451;SDS011;8843;48.838;9.324;2022-09-20T07:07:04;6.03;;;2.47;;
17451;SDS011;8843;48.838;9.324;2022-09-20T07:09:34;5.37;;;1.90;;
17451;SDS011;8843;48.838;9.324;2022-09-20T07:12:01;3.27;;;2.07;;
17451;SDS011;8843;48.838;9.324;2022-09-20T07:14:28;5.43;;;2.00;;
17451;SDS011;8843;48.838;9.324;2022-09-20T07:16:55;4.30;;;2.20;;
17451;SDS011;8843;48.838;9.324;2022-09-20T07:19:22;5.23;;;2.50;;
17451;SDS011;8843;48.838;9.324;2022-09-20T07:21:49;5.63;;;2.27;;
17451;SDS011;8843;48.838;9.324;2022-09-20T07:24:15;5.93;;;2.63;;
17451;SDS011;8843;48.838;9.324;2022-09-20T07:26:54;5.10;;;2.50;;
17451;SDS011;8843;48.838;9.324;2022-09-20T07:29:22;5.93;;;2.40;;
17451;SDS011;8843;48.838;9.324;2022-09-20T07:31:49;5.67;;;2.50;;
17451;SDS011;8843;48.838;9.324;2022-09-20T07:34:16;5.47;;;2.63;;
17451;SDS011;8843;48.838;9.324;2022-09-20T07:36:44;4.87;;;2.63;;
17451;SDS011;8843;48.838;9.324;2022-09-20T07:39:11;4.07;;;2.17;;
17451;SDS011;8843;48.838;9.324;2022-09-20T07:41:38;4.13;;;2.67;;
17451;SDS011;8843;48.838;9.324;2022-09-20T07:44:06;5.40;;;3.00;;
17451;SDS011;8843;48.838;9.324;2022-09-20T07:46:46;4.63;;;3.20;;
17451;SDS011;8843;48.838;9.324;2022-09-20T07:49:13;7.60;;;3.20;;
17451;SDS011;8843;48.838;9.324;2022-09-20T07:51:40;5.93;;;3.37;;
17451;SDS011;8843;48.838;9.324;2022-09-20T07:54:07;6.83;;;2.90;;
17451;SDS011;8843;48.838;9.324;2022-09-20T07:56:33;7.37;;;3.37;;
17451;SDS011;8843;48.838;9.324;2022-09-20T07:59:00;6.57;;;3.30;;
17451;SDS011;8843;48.838;9.324;2022-09-20T08:01:29;5.50;;;2.97;;
17451;SDS011;8843;48.838;9.324;2022-09-20T08:03:56;6.30;;;2.77;;
17451;SDS011;8843;48.838;9.324;2022-09-20T08:06:22;5.47;;;2.60;;
17451;SDS011;8843;48.838;9.324;2022-09-20T08:08:50;5.67;;;2.60;;
17451;SDS011;8843;48.838;9.324;2022-09-20T08:11:19;8.30;;;3.50;;
17451;SDS011;8843;48.838;9.324;2022-09-20T08:13:49;5.53;;;2.30;;
17451;SDS011;8843;48.838;9.324;2022-09-20T08:16:18;7.90;;;2.80;;
17451;SDS011;8843;48.838;9.324;2022-09-20T08:18:48;5.00;;;2.67;;
17451;SDS011;8843;48.838;9.324;2022-09-20T08:21:16;3.93;;;2.97;;
17451;SDS011;8843;48.838;9.324;2022-09-20T08:23:44;5.53;;;2.17;;
17451;SDS011;8843;48.838;9.324;2022-09-20T08:26:12;4.37;;;2.30;;
17451;SDS011;8843;48.838;9.324;2022-09-20T08:28:41;8.00;;;2.50;;
17451;SDS011;8843;48.838;9.324;2022-09-20T08:31:09;5.80;;;2.50;;
17451;SDS011;8843;48.838;9.324;2022-09-20T08:33:37;5.43;;;2.40;;
17451;SDS011;8843;48.838;9.324;2022-09-20T08:36:06;5.37;;;2.63;;
17451;SDS011;8843;48.838;9.324;2022-09-20T08:38:35;5.90;;;2.43;;
17451;SDS011;8843;48.838;9.324;2022-09-20T08:41:03;6.10;;;2.10;;
17451;SDS011;8843;48.838;9.324;2022-09-20T08:43:34;4.50;;;2.10;;
17451;SDS011;8843;48.838;9.324;2022-09-20T08:46:03;6.03;;;2.43;;
17451;SDS011;8843;48.838;9.324;2022-09-20T08:48:34;5.93;;;2.47;;
17451;SDS011;8843;48.838;9.324;2022-09-20T08:51:01;4.20;;;1.83;;
17451;SDS011;8843;48.838;9.324;2022-09-20T08:53:31;7.73;;;2.33;;
17451;SDS011;8843;48.838;9.324;2022-09-20T08:55:59;5.97;;;1.97;;
17451;SDS011;8843;48.838;9.324;2022-09-20T08:58:28;5.97;;;1.80;;
17451;SDS011;8843;48.838;9.324;2022-09-20T09:00:56;5.57;;;1.90;;
17451;SDS011;8843;48.838;9.324;2022-09-20T09:03:24;4.97;;;2.07;;
17451;SDS011;8843;48.838;9.324;2022-09-20T09:05:52;4.60;;;1.80;;
17451;SDS011;8843;48.838;9.324;2022-09-20T09:08:23;4.53;;;1.77;;
17451;SDS011;8843;48.838;9.324;2022-09-20T09:10:54;6.03;;;1.80;;
17451;SDS011;8843;48.838;9.324;2022-09-20T09:13:24;5.07;;;2.33;;
17451;SDS011;8843;48.838;9.324;2022-09-20T09:15:56;5.53;;;1.77;;
17451;SDS011;8843;48.838;9.324;2022-09-20T09:18:30;4.93;;;2.23;;
17451;SDS011;8843;48.838;9.324;2022-09-20T09:20:59;5.80;;;2.00;;
17451;SDS011;8843;48.838;9.324;2022-09-20T09:23:28;4.30;;;2.07;;
17451;SDS011;8843;48.838;9.324;2022-09-20T09:26:02;2.07;;;1.70;;
17451;SDS011;8843;48.838;9.324;2022-09-20T09:28:31;2.63;;;1.50;;
17451;SDS011;8843;48.838;9.324;2022-09-20T09:31:11;4.03;;;1.47;;
17451;SDS011;8843;48.838;9.324;2022-09-20T09:33:42;5.97;;;2.03;;
17451;SDS011;8843;48.838;9.324;2022-09-20T09:36:12;7.07;;;1.87;;
17451;SDS011;8843;48.838;9.324;2022-09-20T09:38:41;4.33;;;1.60;;
17451;SDS011;8843;48.838;9.324;2022-09-20T09:41:20;8.33;;;2.10;;
17451;SDS011;8843;48.838;9.324;2022-09-20T09:43:56;4.80;;;1.60;;
17451;SDS011;8843;48.838;9.324;2022-09-20T09:46:25;8.40;;;1.93;;
17451;SDS011;8843;48.838;9.324;2022-09-20T09:49:05;6.83;;;1.90;;
17451;SDS011;8843;48.838;9.324;2022-09-20T09:51:34;2.73;;;1.40;;
17451;SDS011;8843;48.838;9.324;2022-09-20T09:54:03;3.73;;;1.67;;
17451;SDS011;8843;48.838;9.324;2022-09-20T09:56:37;2.23;;;1.43;;
17451;SDS011;8843;48.838;9.324;2022-09-20T09:59:21;3.57;;;1.40;;
17451;SDS011;8843;48.838;9.324;2022-09-20T10:01:58;6.70;;;1.90;;
17451;SDS011;8843;48.838;9.324;2022-09-20T10:04:39;4.70;;;2.10;;
17451;SDS011;8843;48.838;9.324;2022-09-20T10:07:12;5.47;;;1.60;;
17451;SDS011;8843;48.838;9.324;2022-09-20T10:12:37;5.33;;;1.50;;
17451;SDS011;8843;48.838;9.324;2022-09-20T10:15:18;5.30;;;1.60;;
17451;SDS011;8843;48.838;9.324;2022-09-20T10:17:55;3.93;;;1.70;;
17451;SDS011;8843;48.838;9.324;2022-09-20T10:20:47;3.67;;;1.73;;
17451;SDS011;8843;48.838;9.324;2022-09-20T10:23:25;7.30;;;1.73;;
17451;SDS011;8843;48.838;9.324;2022-09-20T10:26:06;4.27;;;1.77;;
17451;SDS011;8843;48.838;9.324;2022-09-20T10:28:48;2.90;;;1.50;;
17451;SDS011;8843;48.838;9.324;2022-09-20T10:31:30;4.23;;;1.27;;
17451;SDS011;8843;48.838;9.324;2022-09-20T10:34:12;3.07;;;1.47;;
17451;SDS011;8843;48.838;9.324;2022-09-20T10:36:49;2.97;;;1.40;;
17451;SDS011;8843;48.838;9.324;2022-09-20T10:39:21;4.20;;;1.37;;
17451;SDS011;8843;48.838;9.324;2022-09-20T10:41:53;4.73;;;1.50;;
17451;SDS011;8843;48.838;9.324;2022-09-20T10:44:54;6.20;;;1.73;;
17451;SDS011;8843;48.838;9.324;2022-09-20T10:47:30;5.50;;;1.90;;
17451;SDS011;8843;48.838;9.324;2022-09-20T10:50:02;4.67;;;1.50;;
17451;SDS011;8843;48.838;9.324;2022-09-20T10:52:46;4.93;;;1.40;;
17451;SDS011;8843;48.838;9.324;2022-09-20T10:55:33;3.33;;;1.43;;
17451;SDS011;8843;48.838;9.324;2022-09-20T10:58:29;1.67;;;1.40;;
17451;SDS011;8843;48.838;9.324;2022-09-20T11:01:22;2.93;;;1.50;;
17451;SDS011;8843;48.838;9.324;2022-09-20T11:04:00;3.93;;;1.30;;
17451;SDS011;8843;48.838;9.324;2022-09-20T11:06:46;5.43;;;2.10;;
17451;SDS011;8843;48.838;9.324;2022-09-20T11:09:17;6.10;;;1.50;;
17451;SDS011;8843;48.838;9.324;2022-09-20T11:11:49;4.03;;;2.77;;
17451;SDS011;8843;48.838;9.324;2022-09-20T11:14:22;3.83;;;1.37;;
17451;SDS011;8843;48.838;9.324;2022-09-20T11:16:59;2.07;;;1.40;;
17451;SDS011;8843;48.838;9.324;2022-09-20T11:19:34;4.97;;;1.60;;
17451;SDS011;8843;48.838;9.324;2022-09-20T11:22:06;4.90;;;1.40;;
17451;SDS011;8843;48.838;9.324;2022-09-20T11:24:37;2.77;;;1.37;;
17451;SDS011;8843;48.838;9.324;2022-09-20T11:27:11;5.37;;;1.40;;
17451;SDS011;8843;48.838;9.324;2022-09-20T11:29:44;2.33;;;1.20;;
17451;SDS011;8843;48.838;9.324;2022-09-20T11:32:16;3.40;;;1.37;;
17451;SDS011;8843;48.838;9.324;2022-09-20T11:34:48;4.07;;;1.33;;
17451;SDS011;8843;48.838;9.324;2022-09-20T11:37:18;4.50;;;1.60;;
17451;SDS011;8843;48.838;9.324;2022-09-20T11:39:48;2.73;;;1.30;;
17451;SDS011;8843;48.838;9.324;2022-09-20T11:42:19;2.63;;;1.17;;
17451;SDS011;8843;48.838;9.324;2022-09-20T11:44:50;4.53;;;1.57;;
17451;SDS011;8843;48.838;9.324;2022-09-20T11:47:20;2.10;;;1.20;;
17451;SDS011;8843;48.838;9.324;2022-09-20T11:49:56;5.13;;;1.30;;
17451;SDS011;8843;48.838;9.324;2022-09-20T11:52:58;2.43;;;1.50;;
17451;SDS011;8843;48.838;9.324;2022-09-20T11:55:39;3.80;;;1.87;;
17451;SDS011;8843;48.838;9.324;2022-09-20T11:58:13;6.50;;;1.90;;
17451;SDS011;8843;48.838;9.324;2022-09-20T12:00:47;6.00;;;2.07;;
17451;SDS011;8843;48.838;9.324;2022-09-20T12:03:24;3.93;;;1.30;;
17451;SDS011;8843;48.838;9.324;2022-09-20T12:05:57;4.30;;;1.30;;
17451;SDS011;8843;48.838;9.324;2022-09-20T12:08:26;3.50;;;1.73;;
17451;SDS011;8843;48.838;9.324;2022-09-20T12:10:57;4.33;;;1.40;;
17451;SDS011;8843;48.838;9.324;2022-09-20T12:13:28;3.60;;;1.70;;
17451;SDS011;8843;48.838;9.324;2022-09-20T12:16:00;4.17;;;1.60;;
17451;SDS011;8843;48.838;9.324;2022-09-20T12:18:35;4.97;;;1.57;;
17451;SDS011;8843;48.838;9.324;2022-09-20T12:21:25;3.57;;;1.80;;
17451;SDS011;8843;48.838;9.324;2022-09-20T12:26:49;3.00;;;1.50;;
17451;SDS011;8843;48.838;9.324;2022-09-20T12:32:40;6.43;;;1.80;;
17451;SDS011;8843;48.838;9.324;2022-09-20T12:38:27;4.17;;;1.43;;
17451;SDS011;8843;48.838;9.324;2022-09-20T12:41:01;6.80;;;1.70;;
17451;SDS011;8843;48.838;9.324;2022-09-20T12:43:32;2.87;;;1.40;;
17451;SDS011;8843;48.838;9.324;2022-09-20T12:46:01;5.60;;;1.40;;
17451;SDS011;8843;48.838;9.324;2022-09-20T12:48:30;3.93;;;1.33;;
17451;SDS011;8843;48.838;9.324;2022-09-20T12:51:02;7.73;;;1.50;;
17451;SDS011;8843;48.838;9.324;2022-09-20T12:54:02;2.63;;;1.40;;
17451;SDS011;8843;48.838;9.324;2022-09-20T12:56:32;4.43;;;1.53;;
17451;SDS011;8843;48.838;9.324;2022-09-20T12:59:01;3.87;;;1.90;;
17451;SDS011;8843;48.838;9.324;2022-09-20T13:01:32;3.73;;;1.70;;
17451;SDS011;8843;48.838;9.324;2022-09-20T13:09:58;2.97;;;1.40;;
17451;SDS011;8843;48.838;9.324;2022-09-20T13:12:28;4.97;;;1.83;;
17451;SDS011;8843;48.838;9.324;2022-09-20T13:14:56;4.70;;;1.83;;
17451;SDS011;8843;48.838;9.324;2022-09-20T13:17:24;5.17;;;1.70;;
17451;SDS011;8843;48.838;9.324;2022-09-20T13:19:54;3.73;;;1.50;;
17451;SDS011;8843;48.838;9.324;2022-09-20T13:22:23;5.73;;;1.80;;
17451;SDS011;8843;48.838;9.324;2022-09-20T13:24:55;2.33;;;1.50;;
17451;SDS011;8843;48.838;9.324;2022-09-20T13:27:26;3.57;;;1.53;;
17451;SDS011;8843;48.838;9.324;2022-09-20T13:30:07;3.33;;;1.60;;
17451;SDS011;8843;48.838;9.324;2022-09-20T13:32:39;2.97;;;1.40;;
17451;SDS011;8843;48.838;9.324;2022-09-20T13:35:07;3.77;;;1.27;;
17451;SDS011;8843;48.838;9.324;2022-09-20T13:37:45;6.10;;;1.60;;
17451;SDS011;8843;48.838;9.324;2022-09-20T13:40:16;2.80;;;1.50;;
17451;SDS011;8843;48.838;9.324;2022-09-20T13:42:46;3.53;;;1.43;;
17451;SDS011;8843;48.838;9.324;2022-09-20T13:45:14;3.77;;;1.60;;
17451;SDS011;8843;48.838;9.324;2022-09-20T13:47:43;3.60;;;1.40;;
17451;SDS011;8843;48.838;9.324;2022-09-20T13:50:16;4.10;;;1.80;;
17451;SDS011;8843;48.838;9.324;2022-09-20T13:52:48;3.80;;;1.50;;
17451;SDS011;8843;48.838;9.324;2022-09-20T13:55:26;2.17;;;1.50;;
17451;SDS011;8843;48.838;9.324;2022-09-20T13:57:56;5.27;;;1.77;;
17451;SDS011;8843;48.838;9.324;2022-09-20T14:00:27;4.17;;;1.80;;
17451;SDS011;8843;48.838;9.324;2022-09-20T14:02:56;4.77;;;1.80;;
17451;SDS011;8843;48.838;9.324;2022-09-20T14:05:24;5.80;;;1.67;;
17451;SDS011;8843;48.838;9.324;2022-09-20T14:07:54;3.17;;;1.30;;
17451;SDS011;8843;48.838;9.324;2022-09-20T14:10:26;2.60;;;1.83;;
17451;SDS011;8843;48.838;9.324;2022-09-20T14:12:57;2.50;;;1.20;;
17451;SDS011;8843;48.838;9.324;2022-09-20T14:15:27;3.20;;;1.30;;
17451;SDS011;8843;48.838;9.324;2022-09-20T14:17:58;2.60;;;1.40;;
17451;SDS011;8843;48.838;9.324;2022-09-20T14:20:26;5.47;;;1.90;;
17451;SDS011;8843;48.838;9.324;2022-09-20T14:22:53;5.37;;;2.00;;
17451;SDS011;8843;48.838;9.324;2022-09-20T14:25:22;3.63;;;1.53;;
17451;SDS011;8843;48.838;9.324;2022-09-20T14:28:04;4.80;;;2.10;;
17451;SDS011;8843;48.838;9.324;2022-09-20T14:30:34;2.17;;;1.67;;
17451;SDS011;8843;48.838;9.324;2022-09-20T14:33:02;7.43;;;2.30;;
17451;SDS011;8843;48.838;9.324;2022-09-20T14:35:32;3.27;;;1.43;;
17451;SDS011;8843;48.838;9.324;2022-09-20T14:37:59;5.00;;;1.83;;
17451;SDS011;8843;48.838;9.324;2022-09-20T14:40:39;2.87;;;1.50;;
17451;SDS011;8843;48.838;9.324;2022-09-20T14:43:19;2.50;;;1.77;;
17451;SDS011;8843;48.838;9.324;2022-09-20T14:45:50;1.70;;;1.60;;
17451;SDS011;8843;48.838;9.324;2022-09-20T14:51:21;7.20;;;1.70;;
17451;SDS011;8843;48.838;9.324;2022-09-20T14:53:50;4.90;;;2.47;;
17451;SDS011;8843;48.838;9.324;2022-09-20T14:56:31;3.20;;;1.60;;
17451;SDS011;8843;48.838;9.324;2022-09-20T14:59:04;3.93;;;1.70;;
17451;SDS011;8843;48.838;9.324;2022-09-20T15:01:44;4.63;;;1.77;;
17451;SDS011;8843;48.838;9.324;2022-09-20T15:04:24;2.07;;;1.50;;
17451;SDS011;8843;48.838;9.324;2022-09-20T15:06:52;2.57;;;1.67;;
17451;SDS011;8843;48.838;9.324;2022-09-20T15:09:20;1.93;;;1.60;;
17451;SDS011;8843;48.838;9.324;2022-09-20T15:11:57;2.57;;;1.83;;
17451;SDS011;8843;48.838;9.324;2022-09-20T15:14:26;4.90;;;2.07;;
17451;SDS011;8843;48.838;9.324;2022-09-20T15:16:53;3.63;;;1.93;;
17451;SDS011;8843;48.838;9.324;2022-09-20T15:19:20;2.57;;;2.00;;
17451;SDS011;8843;48.838;9.324;2022-09-20T15:21:47;2.47;;;1.60;;
17451;SDS011;8843;48.838;9.324;2022-09-20T15:24:14;2.97;;;1.97;;
17451;SDS011;8843;48.838;9.324;2022-09-20T15:26:42;3.00;;;1.77;;
17451;SDS011;8843;48.838;9.324;2022-09-20T15:29:11;2.67;;;1.70;;
17451;SDS011;8843;48.838;9.324;2022-09-20T15:31:42;4.93;;;2.07;;
17451;SDS011;8843;48.838;9.324;2022-09-20T15:34:10;4.60;;;2.10;;
17451;SDS011;8843;48.838;9.324;2022-09-20T15:36:38;2.67;;;1.80;;
17451;SDS011;8843;48.838;9.324;2022-09-20T15:39:05;4.37;;;1.83;;
17451;SDS011;8843;48.838;9.324;2022-09-20T15:41:32;6.03;;;1.70;;
17451;SDS011;8843;48.838;9.324;2022-09-20T15:44:00;3.97;;;1.50;;
17451;SDS011;8843;48.838;9.324;2022-09-20T15:46:27;6.43;;;1.70;;
17451;SDS011;8843;48.838;9.324;2022-09-20T15:48:56;1.50;;;1.30;;
17451;SDS011;8843;48.838;9.324;2022-09-20T15:51:26;3.20;;;1.70;;
17451;SDS011;8843;48.838;9.324;2022-09-20T15:53:55;4.00;;;1.70;;
17451;SDS011;8843;48.838;9.324;2022-09-20T15:56:24;4.97;;;2.00;;
17451;SDS011;8843;48.838;9.324;2022-09-20T15:58:53;1.77;;;1.50;;
17451;SDS011;8843;48.838;9.324;2022-09-20T16:01:23;2.47;;;1.70;;
17451;SDS011;8843;48.838;9.324;2022-09-20T16:03:50;4.33;;;1.90;;
17451;SDS011;8843;48.838;9.324;2022-09-20T16:06:19;2.43;;;1.60;;
17451;SDS011;8843;48.838;9.324;2022-09-20T16:08:46;1.50;;;1.33;;
17451;SDS011;8843;48.838;9.324;2022-09-20T16:11:14;2.93;;;1.67;;
17451;SDS011;8843;48.838;9.324;2022-09-20T16:13:44;3.90;;;1.80;;
17451;SDS011;8843;48.838;9.324;2022-09-20T16:16:11;1.70;;;1.60;;
17451;SDS011;8843;48.838;9.324;2022-09-20T16:18:39;1.57;;;1.43;;
17451;SDS011;8843;48.838;9.324;2022-09-20T16:21:26;2.50;;;1.90;;
17451;SDS011;8843;48.838;9.324;2022-09-20T16:23:54;2.33;;;1.73;;
17451;SDS011;8843;48.838;9.324;2022-09-20T16:26:22;2.20;;;1.70;;
17451;SDS011;8843;48.838;9.324;2022-09-20T16:28:50;5.17;;;1.60;;
17451;SDS011;8843;48.838;9.324;2022-09-20T16:31:27;1.40;;;1.27;;
17451;SDS011;8843;48.838;9.324;2022-09-20T16:33:56;5.23;;;1.57;;
17451;SDS011;8843;48.838;9.324;2022-09-20T16:36:23;1.67;;;1.33;;
17451;SDS011;8843;48.838;9.324;2022-09-20T16:38:52;1.50;;;1.30;;